createdAt,value
2018-03-11T00:00:36.667Z,4.20
2018-03-11T00:01:11.379Z,4.20
2018-03-11T00:01:45.842Z,4.20
2018-03-11T00:02:19.609Z,4.20
2018-03-11T00:02:53.423Z,4.20
2018-03-11T00:03:27.099Z,4.20
2018-03-11T00:04:00.788Z,4.20
2018-03-11T00:04:34.505Z,4.20
2018-03-11T00:05:08.192Z,4.20
2018-03-11T00:05:41.874Z,4.20
2018-03-11T00:06:15.221Z,4.20
2018-03-11T00:06:48.907Z,4.20
2018-03-11T00:07:22.600Z,4.20
2018-03-11T00:07:56.300Z,4.20
2018-03-11T00:08:29.974Z,4.30
2018-03-11T00:09:03.560Z,4.30
2018-03-11T00:09:38.010Z,4.30
2018-03-11T00:10:11.366Z,4.20
2018-03-11T00:10:45.056Z,4.30
2018-03-11T00:11:18.747Z,4.30
2018-03-11T00:11:52.436Z,4.30
2018-03-11T00:12:26.336Z,4.30
2018-03-11T00:13:00.021Z,4.30
2018-03-11T00:13:33.691Z,4.30
2018-03-11T00:14:08.156Z,4.30
2018-03-11T00:14:41.895Z,4.30
2018-03-11T00:15:15.715Z,4.30
2018-03-11T00:15:49.661Z,4.30
2018-03-11T00:16:23.358Z,4.30
2018-03-11T00:16:58.049Z,4.30
2018-03-11T00:17:31.736Z,4.30
2018-03-11T00:18:05.433Z,4.30
2018-03-11T00:18:39.131Z,4.30
2018-03-11T00:19:12.798Z,4.30
2018-03-11T00:19:46.489Z,4.40
2018-03-11T00:20:20.166Z,4.30
2018-03-11T00:20:53.874Z,4.40
2018-03-11T00:21:27.565Z,4.40
2018-03-11T00:22:01.277Z,4.40
2018-03-11T00:22:35.008Z,4.40
2018-03-11T00:23:08.689Z,4.40
2018-03-11T00:23:42.379Z,4.40
2018-03-11T00:24:16.063Z,4.40
2018-03-11T00:24:49.759Z,4.40
2018-03-11T00:25:23.451Z,4.40
2018-03-11T00:25:57.134Z,4.40
2018-03-11T00:26:31.597Z,4.40
2018-03-11T00:27:05.008Z,4.40
2018-03-11T00:27:39.465Z,4.40
2018-03-11T00:28:12.825Z,4.40
2018-03-11T00:28:46.500Z,4.50
2018-03-11T00:29:20.959Z,4.40
2018-03-11T00:29:56.721Z,4.50
2018-03-11T00:30:30.403Z,4.40
2018-03-11T00:31:04.081Z,4.50
2018-03-11T00:31:37.770Z,4.50
2018-03-11T00:32:11.159Z,4.50
2018-03-11T00:32:44.843Z,4.50
2018-03-11T00:33:18.536Z,4.50
2018-03-11T00:33:52.226Z,4.50
2018-03-11T00:34:25.905Z,4.50
2018-03-11T00:34:59.579Z,4.50
2018-03-11T00:35:33.293Z,4.50
2018-03-11T00:36:06.983Z,4.50
2018-03-11T00:36:40.665Z,4.50
2018-03-11T00:37:14.359Z,4.50
2018-03-11T00:37:48.045Z,4.50
2018-03-11T00:38:21.738Z,4.50
2018-03-11T00:38:55.427Z,4.50
2018-03-11T00:39:29.117Z,4.50
2018-03-11T00:40:02.821Z,4.50
2018-03-11T00:40:36.525Z,4.50
2018-03-11T00:41:10.199Z,4.50
2018-03-11T00:41:43.888Z,4.50
2018-03-11T00:42:17.595Z,4.50
2018-03-11T00:42:52.053Z,4.60
2018-03-11T00:43:25.715Z,4.50
2018-03-11T00:43:59.408Z,4.60
2018-03-11T00:44:33.096Z,4.60
2018-03-11T00:45:07.204Z,4.60
2018-03-11T00:45:40.879Z,4.60
2018-03-11T00:46:15.324Z,4.60
2018-03-11T00:46:49.004Z,4.60
2018-03-11T00:47:22.716Z,4.60
2018-03-11T00:47:56.400Z,4.60
2018-03-11T00:48:30.061Z,4.60
2018-03-11T00:49:03.749Z,4.60
2018-03-11T00:49:37.436Z,4.60
2018-03-11T00:50:11.877Z,4.60
2018-03-11T00:50:45.565Z,4.60
2018-03-11T00:51:19.237Z,4.60
2018-03-11T00:51:52.923Z,4.60
2018-03-11T00:52:26.623Z,4.60
2018-03-11T00:53:00.315Z,4.60
2018-03-11T00:53:34.022Z,4.60
2018-03-11T00:54:07.713Z,4.60
2018-03-11T00:54:41.414Z,4.60
2018-03-11T00:55:15.099Z,4.60
2018-03-11T00:55:48.800Z,4.60
2018-03-11T00:56:22.483Z,4.60
2018-03-11T00:56:56.176Z,4.60
2018-03-11T00:57:29.873Z,4.60
2018-03-11T00:58:03.557Z,4.60
2018-03-11T00:58:37.275Z,4.60
2018-03-11T00:59:11.751Z,4.60
2018-03-11T00:59:45.445Z,4.60
2018-03-11T01:00:19.130Z,4.60
2018-03-11T01:00:52.819Z,4.60
2018-03-11T01:01:26.500Z,4.60
2018-03-11T01:02:00.190Z,4.60
2018-03-11T01:02:33.904Z,4.60
2018-03-11T01:03:07.597Z,4.60
2018-03-11T01:03:41.286Z,4.60
2018-03-11T01:04:14.974Z,4.60
2018-03-11T01:04:48.688Z,4.60
2018-03-11T01:05:23.149Z,4.60
2018-03-11T01:05:56.519Z,4.50
2018-03-11T01:06:30.208Z,4.60
2018-03-11T01:07:03.044Z,4.60
2018-03-11T01:07:37.613Z,4.60
2018-03-11T01:08:10.976Z,4.60
2018-03-11T01:08:44.658Z,4.60
2018-03-11T01:09:18.337Z,4.60
2018-03-11T01:09:52.020Z,4.60
2018-03-11T01:10:25.716Z,4.60
2018-03-11T01:10:59.415Z,4.60
2018-03-11T01:11:33.390Z,4.60
2018-03-11T01:12:07.076Z,4.60
2018-03-11T01:12:40.813Z,4.60
2018-03-11T01:13:14.505Z,4.60
2018-03-11T01:13:48.191Z,4.60
2018-03-11T01:14:21.872Z,4.60
2018-03-11T01:14:55.551Z,4.60
2018-03-11T01:15:28.926Z,4.60
2018-03-11T01:16:02.761Z,4.60
2018-03-11T01:16:36.442Z,4.60
2018-03-11T01:17:09.783Z,4.60
2018-03-11T01:17:43.486Z,4.60
2018-03-11T01:18:17.164Z,4.60
2018-03-11T01:18:50.858Z,4.60
2018-03-11T01:19:24.543Z,4.60
2018-03-11T01:19:58.229Z,4.60
2018-03-11T01:20:31.909Z,4.60
2018-03-11T01:21:05.269Z,4.60
2018-03-11T01:21:39.728Z,4.60
2018-03-11T01:22:13.749Z,4.60
2018-03-11T01:22:47.451Z,4.60
2018-03-11T01:23:21.190Z,4.60
2018-03-11T01:23:54.881Z,4.60
2018-03-11T01:24:28.582Z,4.60
2018-03-11T01:25:02.255Z,4.60
2018-03-11T01:25:36.694Z,4.60
2018-03-11T01:26:10.388Z,4.60
2018-03-11T01:26:44.060Z,4.60
2018-03-11T01:27:17.758Z,4.60
2018-03-11T01:27:51.456Z,4.60
2018-03-11T01:28:25.144Z,4.60
2018-03-11T01:28:58.837Z,4.60
2018-03-11T01:29:32.526Z,4.60
2018-03-11T01:30:05.880Z,4.60
2018-03-11T01:30:39.572Z,4.60
2018-03-11T01:31:13.258Z,4.60
2018-03-11T01:31:46.938Z,4.60
2018-03-11T01:32:20.636Z,4.60
2018-03-11T01:32:54.356Z,4.60
2018-03-11T01:33:28.043Z,4.60
2018-03-11T01:34:01.746Z,4.60
2018-03-11T01:34:35.426Z,4.60
2018-03-11T01:35:09.115Z,4.60
2018-03-11T01:35:42.805Z,4.60
2018-03-11T01:36:16.490Z,4.60
2018-03-11T01:36:50.160Z,4.60
2018-03-11T01:37:23.828Z,4.60
2018-03-11T01:37:58.300Z,4.60
2018-03-11T01:38:31.986Z,4.60
2018-03-11T01:39:05.327Z,4.60
2018-03-11T01:39:38.995Z,4.60
2018-03-11T01:40:13.435Z,4.60
2018-03-11T01:40:47.114Z,4.60
2018-03-11T01:41:20.807Z,4.60
2018-03-11T01:41:54.592Z,4.60
2018-03-11T01:42:28.284Z,4.60
2018-03-11T01:43:01.976Z,4.60
2018-03-11T01:43:35.666Z,4.60
2018-03-11T01:44:09.351Z,4.60
2018-03-11T01:44:43.026Z,4.60
2018-03-11T01:45:17.487Z,4.60
2018-03-11T01:45:51.158Z,4.70
2018-03-11T01:46:24.843Z,4.60
2018-03-11T01:46:58.521Z,4.70
2018-03-11T01:47:32.250Z,4.70
2018-03-11T01:48:05.956Z,4.70
2018-03-11T01:48:39.782Z,4.70
2018-03-11T01:49:13.464Z,4.70
2018-03-11T01:49:47.918Z,4.70
2018-03-11T01:50:21.594Z,4.70
2018-03-11T01:50:55.262Z,4.70
2018-03-11T01:51:28.940Z,4.70
2018-03-11T01:52:03.378Z,4.70
2018-03-11T01:52:48.406Z,4.70
2018-03-11T01:53:22.946Z,4.70
2018-03-11T01:53:57.808Z,4.70
2018-03-11T01:54:31.918Z,4.70
2018-03-11T01:55:06.375Z,4.70
2018-03-11T01:55:40.152Z,4.70
2018-03-11T01:56:14.332Z,4.70
2018-03-11T01:56:53.968Z,4.70
2018-03-11T01:57:28.975Z,4.70
2018-03-11T01:58:03.836Z,4.70
2018-03-11T01:58:38.308Z,4.70
2018-03-11T01:59:12.912Z,4.70
2018-03-11T01:59:48.282Z,4.70
2018-03-11T02:00:23.781Z,4.70
2018-03-11T02:00:58.222Z,4.70
2018-03-11T02:01:31.952Z,4.70
2018-03-11T02:02:05.635Z,4.70
2018-03-11T02:02:39.305Z,4.70
2018-03-11T02:03:13.051Z,4.70
2018-03-11T02:03:47.511Z,4.70
2018-03-11T02:04:21.248Z,4.70
2018-03-11T02:04:58.183Z,4.70
2018-03-11T02:05:31.851Z,4.70
2018-03-11T02:06:05.524Z,4.70
2018-03-11T02:06:39.205Z,4.70
2018-03-11T02:07:12.884Z,4.70
2018-03-11T02:07:47.321Z,4.70
2018-03-11T02:08:21.174Z,4.70
2018-03-11T02:08:55.646Z,4.70
2018-03-11T02:09:29.322Z,4.70
2018-03-11T02:10:03.002Z,4.70
2018-03-11T02:10:36.696Z,4.70
2018-03-11T02:11:10.378Z,4.70
2018-03-11T02:11:44.092Z,4.80
2018-03-11T02:12:17.772Z,4.80
2018-03-11T02:12:51.450Z,4.80
2018-03-11T02:13:25.154Z,4.80
2018-03-11T02:13:58.838Z,4.80
2018-03-11T02:14:32.518Z,4.80
2018-03-11T02:15:06.194Z,4.80
2018-03-11T02:15:40.472Z,4.80
2018-03-11T02:16:14.930Z,4.80
2018-03-11T02:16:48.618Z,4.80
2018-03-11T02:17:22.304Z,4.80
2018-03-11T02:17:56.000Z,4.80
2018-03-11T02:18:29.765Z,4.80
2018-03-11T02:19:03.442Z,4.80
2018-03-11T02:19:37.892Z,4.90
2018-03-11T02:20:11.567Z,4.80
2018-03-11T02:20:45.240Z,4.90
2018-03-11T02:21:18.946Z,4.90
2018-03-11T02:21:52.630Z,4.90
2018-03-11T02:22:26.312Z,4.90
2018-03-11T02:23:00.106Z,4.90
2018-03-11T02:23:33.824Z,4.90
2018-03-11T02:24:07.546Z,4.90
2018-03-11T02:24:41.277Z,4.90
2018-03-11T02:25:14.962Z,4.90
2018-03-11T02:25:48.650Z,4.90
2018-03-11T02:26:22.331Z,4.90
2018-03-11T02:26:56.042Z,4.90
2018-03-11T02:27:29.716Z,4.90
2018-03-11T02:28:04.164Z,4.90
2018-03-11T02:28:37.880Z,4.90
2018-03-11T02:29:11.564Z,4.90
2018-03-11T02:29:45.246Z,4.90
2018-03-11T02:30:18.932Z,4.90
2018-03-11T02:30:52.623Z,4.90
2018-03-11T02:31:26.308Z,4.90
2018-03-11T02:31:59.994Z,4.90
2018-03-11T02:32:33.688Z,4.90
2018-03-11T02:33:07.371Z,4.90
2018-03-11T02:33:41.565Z,4.90
2018-03-11T02:34:15.244Z,4.90
2018-03-11T02:34:48.902Z,4.90
2018-03-11T02:35:23.362Z,4.90
2018-03-11T02:35:56.716Z,4.90
2018-03-11T02:36:30.404Z,4.90
2018-03-11T02:37:04.082Z,4.90
2018-03-11T02:37:37.777Z,4.90
2018-03-11T02:38:11.450Z,4.80
2018-03-11T02:38:45.927Z,4.80
2018-03-11T02:39:19.671Z,4.80
2018-03-11T02:39:53.019Z,4.80
2018-03-11T02:40:27.475Z,4.80
2018-03-11T02:41:01.140Z,4.80
2018-03-11T02:41:34.815Z,4.80
2018-03-11T02:42:09.263Z,4.80
2018-03-11T02:42:42.941Z,4.80
2018-03-11T02:43:16.625Z,4.80
2018-03-11T02:43:50.373Z,4.80
2018-03-11T02:44:25.580Z,4.80
2018-03-11T02:44:59.416Z,4.80
2018-03-11T02:45:33.870Z,4.80
2018-03-11T02:46:07.578Z,4.80
2018-03-11T02:46:41.299Z,4.80
2018-03-11T02:47:15.739Z,4.80
2018-03-11T02:47:49.410Z,4.80
2018-03-11T02:48:23.855Z,4.80
2018-03-11T02:48:57.650Z,4.80
2018-03-11T02:49:31.325Z,4.80
2018-03-11T02:50:04.368Z,4.80
2018-03-11T02:50:38.832Z,4.80
2018-03-11T02:51:12.519Z,4.80
2018-03-11T02:51:45.880Z,4.80
2018-03-11T02:52:19.554Z,4.80
2018-03-11T02:52:53.997Z,4.80
2018-03-11T02:53:27.699Z,4.80
2018-03-11T02:54:01.387Z,4.80
2018-03-11T02:54:35.065Z,4.80
2018-03-11T02:55:08.741Z,4.80
2018-03-11T02:55:42.415Z,4.80
2018-03-11T02:56:16.095Z,4.80
2018-03-11T02:56:50.529Z,4.80
2018-03-11T02:57:24.218Z,4.80
2018-03-11T02:57:57.891Z,4.80
2018-03-11T02:58:31.571Z,4.80
2018-03-11T02:59:04.927Z,4.80
2018-03-11T02:59:38.615Z,4.80
2018-03-11T03:00:12.301Z,4.80
2018-03-11T03:00:46.004Z,4.80
2018-03-11T03:01:19.676Z,4.80
2018-03-11T03:01:53.359Z,4.80
2018-03-11T03:02:27.040Z,4.80
2018-03-11T03:03:00.584Z,4.80
2018-03-11T03:03:35.083Z,4.80
2018-03-11T03:04:09.211Z,4.80
2018-03-11T03:04:42.887Z,4.80
2018-03-11T03:05:16.574Z,4.80
2018-03-11T03:05:50.259Z,4.80
2018-03-11T03:06:23.936Z,4.80
2018-03-11T03:06:58.376Z,4.80
2018-03-11T03:07:32.053Z,4.80
2018-03-11T03:08:05.737Z,4.80
2018-03-11T03:08:39.419Z,4.80
2018-03-11T03:09:13.873Z,4.80
2018-03-11T03:09:47.763Z,4.80
2018-03-11T03:10:21.593Z,4.80
2018-03-11T03:10:56.045Z,4.80
2018-03-11T03:11:29.723Z,4.80
2018-03-11T03:12:03.467Z,4.80
2018-03-11T03:12:37.145Z,4.80
2018-03-11T03:13:10.485Z,4.80
2018-03-11T03:13:43.979Z,4.80
2018-03-11T03:14:17.727Z,4.80
2018-03-11T03:14:51.411Z,4.80
2018-03-11T03:15:25.093Z,4.80
2018-03-11T03:15:58.764Z,4.80
2018-03-11T03:16:32.653Z,4.70
2018-03-11T03:17:06.339Z,4.70
2018-03-11T03:17:40.002Z,4.70
2018-03-11T03:18:13.679Z,4.70
2018-03-11T03:18:48.136Z,4.70
2018-03-11T03:19:21.873Z,4.70
2018-03-11T03:19:56.331Z,4.70
2018-03-11T03:20:30.007Z,4.70
2018-03-11T03:21:03.685Z,4.70
2018-03-11T03:21:37.367Z,4.70
2018-03-11T03:22:11.349Z,4.70
2018-03-11T03:22:45.815Z,4.70
2018-03-11T03:23:19.509Z,4.70
2018-03-11T03:23:53.231Z,4.70
2018-03-11T03:24:27.675Z,4.70
2018-03-11T03:25:01.375Z,4.70
2018-03-11T03:25:35.493Z,4.70
2018-03-11T03:26:09.173Z,4.70
2018-03-11T03:26:42.520Z,4.70
2018-03-11T03:27:16.209Z,4.70
2018-03-11T03:27:49.887Z,4.70
2018-03-11T03:28:24.325Z,4.70
2018-03-11T03:28:58.298Z,4.70
2018-03-11T03:29:32.089Z,4.70
2018-03-11T03:30:05.475Z,4.70
2018-03-11T03:30:39.176Z,4.70
2018-03-11T03:31:12.868Z,4.70
2018-03-11T03:31:46.565Z,4.70
2018-03-11T03:32:20.243Z,4.70
2018-03-11T03:32:54.603Z,4.70
2018-03-11T03:33:28.289Z,4.70
2018-03-11T03:34:02.233Z,4.70
2018-03-11T03:34:35.900Z,4.70
2018-03-11T03:35:09.582Z,4.70
2018-03-11T03:35:43.259Z,4.70
2018-03-11T03:36:16.935Z,4.70
2018-03-11T03:36:50.616Z,4.70
2018-03-11T03:37:24.291Z,4.70
2018-03-11T03:37:57.978Z,4.70
2018-03-11T03:38:31.646Z,4.70
2018-03-11T03:39:05.441Z,4.70
2018-03-11T03:39:39.129Z,4.70
2018-03-11T03:40:12.804Z,4.70
2018-03-11T03:40:47.247Z,4.70
2018-03-11T03:41:20.932Z,4.70
2018-03-11T03:41:54.610Z,4.70
2018-03-11T03:42:28.283Z,4.70
2018-03-11T03:43:02.747Z,4.70
2018-03-11T03:43:36.438Z,4.70
2018-03-11T03:44:10.139Z,4.70
2018-03-11T03:44:44.578Z,4.70
2018-03-11T03:45:19.017Z,4.70
2018-03-11T03:45:52.713Z,4.70
2018-03-11T03:46:26.399Z,4.70
2018-03-11T03:47:00.079Z,4.70
2018-03-11T03:47:33.753Z,4.70
2018-03-11T03:48:08.205Z,4.70
2018-03-11T03:48:41.892Z,4.70
2018-03-11T03:49:15.611Z,4.70
2018-03-11T03:49:49.478Z,4.70
2018-03-11T03:50:23.155Z,4.70
2018-03-11T03:50:56.833Z,4.70
2018-03-11T03:51:30.519Z,4.70
2018-03-11T03:52:04.200Z,4.70
2018-03-11T03:52:37.884Z,4.70
2018-03-11T03:53:11.559Z,4.70
2018-03-11T03:53:45.996Z,4.70
2018-03-11T03:54:19.689Z,4.70
2018-03-11T03:54:53.376Z,4.70
2018-03-11T03:55:27.057Z,4.70
2018-03-11T03:56:00.739Z,4.70
2018-03-11T03:56:35.179Z,4.70
2018-03-11T03:57:08.855Z,4.70
2018-03-11T03:57:42.528Z,4.70
2018-03-11T03:58:16.195Z,4.70
2018-03-11T03:58:49.868Z,4.70
2018-03-11T03:59:24.329Z,4.70
2018-03-11T03:59:58.021Z,4.70
2018-03-11T04:00:31.683Z,4.70
2018-03-11T04:01:06.113Z,4.70
2018-03-11T04:01:39.805Z,4.70
2018-03-11T04:02:13.156Z,4.70
2018-03-11T04:02:47.604Z,4.70
2018-03-11T04:03:21.424Z,4.70
2018-03-11T04:03:55.111Z,4.70
2018-03-11T04:04:28.812Z,4.70
2018-03-11T04:05:02.487Z,4.60
2018-03-11T04:05:36.155Z,4.60
2018-03-11T04:06:09.827Z,4.60
2018-03-11T04:06:44.272Z,4.60
2018-03-11T04:07:17.957Z,4.60
2018-03-11T04:07:51.643Z,4.60
2018-03-11T04:08:25.321Z,4.60
2018-03-11T04:08:59.013Z,4.60
2018-03-11T04:09:32.711Z,4.50
2018-03-11T04:10:06.381Z,4.50
2018-03-11T04:10:39.724Z,4.50
2018-03-11T04:11:13.428Z,4.50
2018-03-11T04:11:48.119Z,4.50
2018-03-11T04:12:21.784Z,4.50
2018-03-11T04:12:55.462Z,4.50
2018-03-11T04:13:29.192Z,4.50
2018-03-11T04:14:03.019Z,4.40
2018-03-11T04:14:36.713Z,4.40
2018-03-11T04:15:10.203Z,4.40
2018-03-11T04:15:43.883Z,4.40
2018-03-11T04:16:17.571Z,4.40
2018-03-11T04:16:52.033Z,4.40
2018-03-11T04:17:25.722Z,4.40
2018-03-11T04:17:59.409Z,4.40
2018-03-11T04:18:33.087Z,4.30
2018-03-11T04:19:06.768Z,4.40
2018-03-11T04:19:40.475Z,4.30
2018-03-11T04:20:14.165Z,4.30
2018-03-11T04:20:47.839Z,4.30
2018-03-11T04:21:21.513Z,4.30
2018-03-11T04:21:55.197Z,4.30
2018-03-11T04:22:29.631Z,4.30
2018-03-11T04:23:03.307Z,4.20
2018-03-11T04:23:36.989Z,4.20
2018-03-11T04:24:10.791Z,4.20
2018-03-11T04:24:44.465Z,4.20
2018-03-11T04:25:18.159Z,4.20
2018-03-11T04:25:51.839Z,4.20
2018-03-11T04:26:26.972Z,4.20
2018-03-11T04:27:00.644Z,4.20
2018-03-11T04:27:35.151Z,4.20
2018-03-11T04:28:09.621Z,4.10
2018-03-11T04:28:43.306Z,4.20
2018-03-11T04:29:16.979Z,4.10
2018-03-11T04:29:50.695Z,4.10
2018-03-11T04:30:24.384Z,4.10
2018-03-11T04:30:58.056Z,4.10
2018-03-11T04:31:31.738Z,4.10
2018-03-11T04:32:05.430Z,4.10
2018-03-11T04:32:39.119Z,4.10
2018-03-11T04:33:12.813Z,4.10
2018-03-11T04:33:46.491Z,4.10
2018-03-11T04:34:20.162Z,4.20
2018-03-11T04:34:53.846Z,4.20
2018-03-11T04:35:28.297Z,4.10
2018-03-11T04:36:01.971Z,4.10
2018-03-11T04:36:35.662Z,4.20
2018-03-11T04:37:09.339Z,4.20
2018-03-11T04:37:43.023Z,4.20
2018-03-11T04:38:16.693Z,4.20
2018-03-11T04:38:51.138Z,4.20
2018-03-11T04:39:24.810Z,4.20
2018-03-11T04:39:58.523Z,4.20
2018-03-11T04:40:32.214Z,4.20
2018-03-11T04:41:05.896Z,4.20
2018-03-11T04:41:39.559Z,4.20
2018-03-11T04:42:13.239Z,4.30
2018-03-11T04:42:47.678Z,4.30
2018-03-11T04:43:21.374Z,4.30
2018-03-11T04:43:55.055Z,4.30
2018-03-11T04:44:28.733Z,4.30
2018-03-11T04:45:02.428Z,4.30
2018-03-11T04:45:36.104Z,4.30
2018-03-11T04:46:09.781Z,4.30
2018-03-11T04:46:44.216Z,4.30
2018-03-11T04:47:17.905Z,4.30
2018-03-11T04:47:51.583Z,4.40
2018-03-11T04:48:25.257Z,4.40
2018-03-11T04:48:59.685Z,4.40
2018-03-11T04:49:33.457Z,4.40
2018-03-11T04:50:07.951Z,4.40
2018-03-11T04:50:41.615Z,4.40
2018-03-11T04:51:15.303Z,4.40
2018-03-11T04:51:48.981Z,4.40
2018-03-11T04:52:22.650Z,4.40
2018-03-11T04:52:56.439Z,4.40
2018-03-11T04:53:30.115Z,4.40
2018-03-11T04:54:04.563Z,4.40
2018-03-11T04:54:38.247Z,4.50
2018-03-11T04:55:12.007Z,4.40
2018-03-11T04:55:46.445Z,4.50
2018-03-11T04:56:20.119Z,4.50
2018-03-11T04:56:53.791Z,4.50
2018-03-11T04:57:28.233Z,4.50
2018-03-11T04:58:01.892Z,4.50
2018-03-11T04:58:36.345Z,4.50
2018-03-11T04:59:10.025Z,4.50
2018-03-11T04:59:43.698Z,4.50
2018-03-11T05:00:17.382Z,4.50
2018-03-11T05:01:31.942Z,4.50
2018-03-11T05:02:05.621Z,4.50
2018-03-11T05:02:39.330Z,4.50
2018-03-11T05:03:13.966Z,4.50
2018-03-11T05:03:47.645Z,4.50
2018-03-11T05:04:21.332Z,4.50
2018-03-11T05:04:55.025Z,4.50
2018-03-11T05:05:28.701Z,4.50
2018-03-11T05:06:02.363Z,4.50
2018-03-11T05:06:35.711Z,4.60
2018-03-11T05:07:09.189Z,4.50
2018-03-11T05:07:42.859Z,4.50
2018-03-11T05:08:16.539Z,4.60
2018-03-11T05:08:50.220Z,4.60
2018-03-11T05:09:23.955Z,4.60
2018-03-11T05:09:57.776Z,4.60
2018-03-11T05:10:32.220Z,4.60
2018-03-11T05:11:05.898Z,4.60
2018-03-11T05:11:39.589Z,4.60
2018-03-11T05:12:13.260Z,4.60
2018-03-11T05:12:46.951Z,4.60
2018-03-11T05:13:20.642Z,4.60
2018-03-11T05:13:54.332Z,4.60
2018-03-11T05:14:28.016Z,4.60
2018-03-11T05:15:01.709Z,4.60
2018-03-11T05:15:35.400Z,4.70
2018-03-11T05:16:09.074Z,4.70
2018-03-11T05:16:43.200Z,4.70
2018-03-11T05:17:16.886Z,4.70
2018-03-11T05:17:50.590Z,4.70
2018-03-11T05:18:24.261Z,4.70
2018-03-11T05:18:57.952Z,4.70
2018-03-11T05:19:31.636Z,4.70
2018-03-11T05:20:05.334Z,4.70
2018-03-11T05:20:39.010Z,4.70
2018-03-11T05:21:13.456Z,4.70
2018-03-11T05:21:47.110Z,4.70
2018-03-11T05:22:20.790Z,4.70
2018-03-11T05:22:55.257Z,4.70
2018-03-11T05:23:28.949Z,4.70
2018-03-11T05:24:02.621Z,4.70
2018-03-11T05:24:36.306Z,4.70
2018-03-11T05:25:10.012Z,4.70
2018-03-11T05:25:43.684Z,4.70
2018-03-11T05:26:17.352Z,4.70
2018-03-11T05:26:51.031Z,4.70
2018-03-11T05:27:25.150Z,4.80
2018-03-11T05:27:58.840Z,4.80
2018-03-11T05:28:32.524Z,4.80
2018-03-11T05:29:06.294Z,4.80
2018-03-11T05:29:40.498Z,4.80
2018-03-11T05:30:14.952Z,4.80
2018-03-11T05:30:48.638Z,4.80
2018-03-11T05:31:22.298Z,4.80
2018-03-11T05:31:56.730Z,4.80
2018-03-11T05:32:30.400Z,4.80
2018-03-11T05:33:04.067Z,4.80
2018-03-11T05:33:38.511Z,4.80
2018-03-11T05:34:12.188Z,4.80
2018-03-11T05:34:45.858Z,4.90
2018-03-11T05:35:20.316Z,4.90
2018-03-11T05:35:53.985Z,4.90
2018-03-11T05:36:27.660Z,4.90
2018-03-11T05:37:01.335Z,4.90
2018-03-11T05:37:35.772Z,4.90
2018-03-11T05:38:09.442Z,4.90
2018-03-11T05:38:43.116Z,4.90
2018-03-11T05:39:17.560Z,4.90
2018-03-11T05:39:51.238Z,5.00
2018-03-11T05:40:25.164Z,5.00
2018-03-11T05:40:58.829Z,5.00
2018-03-11T05:41:32.518Z,5.00
2018-03-11T05:42:06.250Z,5.00
2018-03-11T05:42:39.932Z,5.00
2018-03-11T05:43:13.616Z,5.00
2018-03-11T05:43:47.302Z,5.00
2018-03-11T05:44:20.974Z,5.00
2018-03-11T05:44:54.654Z,5.00
2018-03-11T05:45:28.634Z,5.00
2018-03-11T05:46:03.056Z,5.00
2018-03-11T05:46:36.722Z,5.00
2018-03-11T05:47:10.384Z,5.00
2018-03-11T05:47:44.053Z,5.00
2018-03-11T05:48:17.750Z,5.10
2018-03-11T05:48:51.434Z,5.10
2018-03-11T05:49:25.110Z,5.10
2018-03-11T05:49:58.791Z,5.10
2018-03-11T05:50:32.614Z,5.10
2018-03-11T05:51:06.286Z,5.10
2018-03-11T05:51:39.982Z,5.10
2018-03-11T05:52:13.653Z,5.10
2018-03-11T05:52:47.340Z,5.10
2018-03-11T05:53:21.020Z,5.10
2018-03-11T05:53:54.698Z,5.10
2018-03-11T05:54:28.560Z,5.20
2018-03-11T05:55:02.228Z,5.20
2018-03-11T05:55:35.930Z,5.20
2018-03-11T05:56:09.639Z,5.20
2018-03-11T05:56:43.353Z,5.20
2018-03-11T05:57:17.183Z,5.30
2018-03-11T05:57:50.856Z,5.30
2018-03-11T05:58:24.546Z,5.30
2018-03-11T05:58:58.240Z,5.30
2018-03-11T05:59:31.914Z,5.30
2018-03-11T06:00:05.574Z,5.30
2018-03-11T06:00:39.288Z,5.30
2018-03-11T06:01:13.427Z,5.30
2018-03-11T06:01:47.094Z,5.30
2018-03-11T06:02:20.774Z,5.40
2018-03-11T06:02:54.487Z,5.40
2018-03-11T06:03:28.162Z,5.40
2018-03-11T06:04:01.843Z,5.40
2018-03-11T06:04:35.530Z,5.40
2018-03-11T06:05:09.196Z,5.40
2018-03-11T06:05:42.906Z,5.40
2018-03-11T06:06:17.346Z,5.50
2018-03-11T06:06:51.024Z,5.40
2018-03-11T06:07:24.698Z,5.40
2018-03-11T06:07:59.140Z,5.40
2018-03-11T06:08:32.822Z,5.50
2018-03-11T06:09:06.488Z,5.50
2018-03-11T06:09:40.176Z,5.50
2018-03-11T06:10:13.848Z,5.50
2018-03-11T06:10:48.322Z,5.50
2018-03-11T06:11:22.010Z,5.50
2018-03-11T06:11:55.705Z,5.50
2018-03-11T06:12:29.380Z,5.50
2018-03-11T06:13:03.064Z,5.50
2018-03-11T06:13:36.753Z,5.60
2018-03-11T06:14:10.420Z,5.60
2018-03-11T06:14:44.093Z,5.60
2018-03-11T06:15:18.546Z,5.60
2018-03-11T06:15:52.275Z,5.60
2018-03-11T06:16:26.726Z,5.60
2018-03-11T06:17:00.398Z,5.60
2018-03-11T06:17:34.077Z,5.60
2018-03-11T06:18:08.520Z,5.60
2018-03-11T06:18:42.190Z,5.60
2018-03-11T06:19:15.962Z,5.60
2018-03-11T06:19:50.410Z,5.70
2018-03-11T06:20:24.080Z,5.70
2018-03-11T06:20:57.789Z,5.70
2018-03-11T06:21:31.452Z,5.70
2018-03-11T06:22:05.119Z,5.70
2018-03-11T06:22:38.824Z,5.70
2018-03-11T06:23:13.270Z,5.70
2018-03-11T06:23:46.956Z,5.70
2018-03-11T06:24:20.641Z,5.70
2018-03-11T06:24:54.328Z,5.80
2018-03-11T06:25:28.013Z,5.80
2018-03-11T06:26:01.727Z,5.80
2018-03-11T06:26:35.414Z,5.80
2018-03-11T06:27:09.098Z,5.80
2018-03-11T06:27:42.770Z,5.80
2018-03-11T06:28:16.438Z,5.80
2018-03-11T06:28:50.889Z,5.90
2018-03-11T06:29:24.572Z,5.90
2018-03-11T06:29:58.250Z,5.90
2018-03-11T06:30:31.937Z,5.90
2018-03-11T06:31:05.642Z,5.90
2018-03-11T06:31:39.328Z,5.90
2018-03-11T06:32:13.012Z,5.90
2018-03-11T06:32:46.698Z,5.90
2018-03-11T06:33:20.366Z,6.00
2018-03-11T06:33:54.809Z,6.00
2018-03-11T06:34:28.494Z,6.00
2018-03-11T06:35:02.174Z,6.00
2018-03-11T06:35:35.838Z,6.00
2018-03-11T06:36:10.308Z,6.00
2018-03-11T06:36:43.998Z,6.10
2018-03-11T06:37:17.685Z,6.10
2018-03-11T06:37:51.378Z,6.10
2018-03-11T06:38:25.067Z,6.10
2018-03-11T06:38:58.772Z,6.10
2018-03-11T06:39:32.618Z,6.20
2018-03-11T06:40:06.308Z,6.10
2018-03-11T06:40:39.988Z,6.10
2018-03-11T06:41:13.971Z,6.20
2018-03-11T06:41:48.412Z,6.20
2018-03-11T06:42:22.102Z,6.20
2018-03-11T06:42:55.788Z,6.20
2018-03-11T06:43:29.466Z,6.20
2018-03-11T06:44:03.154Z,6.20
2018-03-11T06:44:36.844Z,6.20
2018-03-11T06:45:10.530Z,6.20
2018-03-11T06:45:44.216Z,6.30
2018-03-11T06:46:17.922Z,6.30
2018-03-11T06:46:51.618Z,6.30
2018-03-11T06:47:25.304Z,6.30
2018-03-11T06:47:58.993Z,6.40
2018-03-11T06:48:32.675Z,6.40
2018-03-11T06:49:06.357Z,6.40
2018-03-11T06:49:40.049Z,6.40
2018-03-11T06:50:13.732Z,6.40
2018-03-11T06:50:47.078Z,6.40
2018-03-11T06:51:20.788Z,6.50
2018-03-11T06:51:55.256Z,6.50
2018-03-11T06:52:28.927Z,6.50
2018-03-11T06:53:02.606Z,6.50
2018-03-11T06:53:36.288Z,6.60
2018-03-11T06:54:09.974Z,6.60
2018-03-11T06:54:43.660Z,6.60
2018-03-11T06:55:17.352Z,6.60
2018-03-11T06:55:51.798Z,6.70
2018-03-11T06:56:25.500Z,6.70
2018-03-11T06:56:59.183Z,6.70
2018-03-11T06:57:32.870Z,6.70
2018-03-11T06:58:06.565Z,6.80
2018-03-11T06:58:40.254Z,6.80
2018-03-11T06:59:13.939Z,6.80
2018-03-11T06:59:47.614Z,6.80
2018-03-11T07:00:21.282Z,6.90
2018-03-11T07:00:55.718Z,6.90
2018-03-11T07:01:29.414Z,6.90
2018-03-11T07:02:03.102Z,7.00
2018-03-11T07:02:36.780Z,7.00
2018-03-11T07:03:10.448Z,7.00
2018-03-11T07:03:44.129Z,7.00
2018-03-11T07:04:18.760Z,7.10
2018-03-11T07:04:52.444Z,7.10
2018-03-11T07:05:26.126Z,7.10
2018-03-11T07:06:00.572Z,7.20
2018-03-11T07:06:34.314Z,7.20
2018-03-11T07:07:08.773Z,7.20
2018-03-11T07:07:42.275Z,7.20
2018-03-11T07:08:15.774Z,7.30
2018-03-11T07:08:49.448Z,7.30
2018-03-11T07:09:23.127Z,7.30
2018-03-11T07:09:56.854Z,7.30
2018-03-11T07:10:30.670Z,7.30
2018-03-11T07:11:04.157Z,7.40
2018-03-11T07:11:37.874Z,7.40
2018-03-11T07:12:11.552Z,7.40
2018-03-11T07:12:45.032Z,7.40
2018-03-11T07:13:18.704Z,7.50
2018-03-11T07:13:53.151Z,7.50
2018-03-11T07:14:26.851Z,7.50
2018-03-11T07:15:00.528Z,7.50
2018-03-11T07:15:34.212Z,7.50
2018-03-11T07:16:07.920Z,7.60
2018-03-11T07:16:41.626Z,7.60
2018-03-11T07:17:15.308Z,7.60
2018-03-11T07:17:48.978Z,7.60
2018-03-11T07:18:22.673Z,7.60
2018-03-11T07:18:56.366Z,7.70
2018-03-11T07:19:30.021Z,7.70
2018-03-11T07:20:03.689Z,7.70
2018-03-11T07:20:38.136Z,7.70
2018-03-11T07:21:11.813Z,7.70
2018-03-11T07:21:45.514Z,7.80
2018-03-11T07:22:19.176Z,7.80
2018-03-11T07:22:53.630Z,7.80
2018-03-11T07:23:27.306Z,7.80
2018-03-11T07:24:00.983Z,7.90
2018-03-11T07:24:34.660Z,7.90
2018-03-11T07:25:08.343Z,7.90
2018-03-11T07:25:41.754Z,8.00
2018-03-11T07:26:15.438Z,8.00
2018-03-11T07:26:49.418Z,8.00
2018-03-11T07:27:23.856Z,8.10
2018-03-11T07:27:57.547Z,8.10
2018-03-11T07:28:31.234Z,8.20
2018-03-11T07:29:04.583Z,8.20
2018-03-11T07:29:39.028Z,8.30
2018-03-11T07:30:12.713Z,8.30
2018-03-11T07:30:46.406Z,8.30
2018-03-11T07:31:20.084Z,8.40